Time;durP1;ratioP1;P1;durP2;ratioP2;P2;SDS_P1;SDS_P2;PMS_P1;PMS_P2;Temp;Humidity;BMP_temperature;BMP_pressure;BME280_temperature;BME280_humidity;BME280_pressure;Samples;Min_cycle;Max_cycle;Signal;HPM_P1;HPM_P2
2023/10/24 00:01:39;;;;;;;5.05;3.00;;;;;;;15.89;56.70;99478.94;7736770;32;37177;-77
2023/10/24 00:05:56;;;;;;;6.95;3.17;;;;;;;15.85;56.83;99472.47;7736595;32;40078;-77
2023/10/24 00:10:13;;;;;;;7.12;3.00;;;;;;;15.94;56.55;99456.81;7736175;32;40536;-75
2023/10/24 00:14:29;;;;;;;6.87;2.97;;;;;;;15.76;56.99;99464.16;7736304;32;37899;-76
2023/10/24 00:18:46;;;;;;;5.00;2.95;;;;;;;15.65;57.17;99453.72;7736305;32;37088;-75
2023/10/24 00:23:03;;;;;;;7.40;3.00;;;;;;;15.58;57.24;99441.22;7736128;32;39439;-75
2023/10/24 00:27:19;;;;;;;6.78;3.05;;;;;;;15.77;56.35;99424.56;7736060;32;40889;-76
2023/10/24 00:31:35;;;;;;;7.85;3.15;;;;;;;15.50;56.97;99416.44;7735852;32;37930;-76
2023/10/24 00:35:51;;;;;;;4.93;3.00;;;;;;;14.91;58.62;99427.47;7738572;32;37888;-77
2023/10/24 00:40:08;;;;;;;9.68;3.22;;;;;;;15.42;57.24;99407.03;7739663;32;39268;-76
2023/10/24 00:44:27;;;;;;;7.30;3.37;;;;;;;15.45;57.09;99387.16;7739588;32;40690;-76
2023/10/24 00:48:44;;;;;;;4.97;3.03;;;;;;;15.20;57.65;99377.66;7734316;32;161092;-76
2023/10/24 00:53:00;;;;;;;5.07;2.75;;;;;;;15.03;58.35;99379.12;7739670;32;37860;-77
2023/10/24 00:57:17;;;;;;;6.70;2.83;;;;;;;15.13;57.96;99388.25;7739183;32;39287;-77
2023/10/24 01:01:33;;;;;;;6.12;2.83;;;;;;;15.23;57.63;99407.22;7739370;32;40178;-77
2023/10/24 01:05:50;;;;;;;5.43;2.95;;;;;;;15.25;57.66;99413.22;7739193;32;38016;-76
2023/10/24 01:10:07;;;;;;;7.78;2.87;;;;;;;15.28;57.63;99423.59;7739303;32;37252;-77
2023/10/24 01:14:23;;;;;;;7.85;3.20;;;;;;;15.15;58.21;99429.94;7739024;32;39434;-76
2023/10/24 01:18:41;;;;;;;8.55;3.80;;;;;;;15.30;58.11;99421.34;7725563;32;40060;-77
2023/10/24 01:22:57;;;;;;;9.50;3.65;;;;;;;15.22;58.53;99419.31;7739043;32;37809;-77
2023/10/24 01:27:14;;;;;;;5.90;3.22;;;;;;;15.21;58.60;99418.53;7738746;32;37302;-77
2023/10/24 01:31:31;;;;;;;7.78;3.60;;;;;;;15.23;58.49;99425.62;7739042;32;39100;-76
2023/10/24 01:35:47;;;;;;;8.82;3.15;;;;;;;14.93;59.29;99425.22;7738693;32;40036;-76
2023/10/24 01:40:07;;;;;;;6.87;3.28;;;;;;;15.17;58.58;99416.69;7738833;32;37858;-77
2023/10/24 01:44:23;;;;;;;5.85;3.33;;;;;;;15.01;58.87;99417.06;7738471;32;37204;-76
2023/10/24 01:48:40;;;;;;;7.57;3.17;;;;;;;15.10;58.51;99410.84;7738540;32;39525;-77
2023/10/24 01:52:58;;;;;;;9.30;3.28;;;;;;;14.96;58.93;99428.16;7725249;32;40646;-76
2023/10/24 01:57:15;;;;;;;7.87;3.20;;;;;;;14.79;61.00;99425.28;7738816;32;37916;-76
2023/10/24 02:01:32;;;;;;;7.00;3.47;;;;;;;15.05;58.92;99397.25;7738731;32;37102;-76
2023/10/24 02:05:48;;;;;;;6.45;3.22;;;;;;;15.02;58.79;99399.47;7738688;32;39055;-77
2023/10/24 02:10:05;;;;;;;5.72;3.20;;;;;;;15.11;58.46;99401.47;7738541;32;39682;-76
2023/10/24 02:14:22;;;;;;;7.30;3.55;;;;;;;14.92;58.91;99407.13;7738210;32;37976;-77
2023/10/24 02:18:38;;;;;;;5.15;3.28;;;;;;;14.77;59.25;99419.28;7738540;32;37666;-76
2023/10/24 02:22:54;;;;;;;7.12;3.35;;;;;;;14.71;59.47;99409.53;7738545;32;39145;-76
2023/10/24 02:27:10;;;;;;;8.00;3.53;;;;;;;14.71;59.36;99404.88;7738431;32;40163;-76
2023/10/24 02:31:27;;;;;;;6.82;2.83;;;;;;;14.69;59.33;99407.09;7737827;32;38741;-77
2023/10/24 02:35:43;;;;;;;8.38;2.80;;;;;;;14.80;59.14;99399.47;7738328;32;37298;-77
2023/10/24 02:39:59;;;;;;;6.40;3.40;;;;;;;14.76;59.36;99398.44;7738234;32;40063;-77
2023/10/24 02:44:16;;;;;;;8.98;3.67;;;;;;;14.30;60.88;99393.91;7738487;32;40484;-76
2023/10/24 02:48:32;;;;;;;5.50;3.55;;;;;;;14.49;60.32;99389.13;7737791;32;37892;-77
2023/10/24 02:52:48;;;;;;;7.18;3.42;;;;;;;14.76;59.35;99379.22;7738100;32;36701;-77
2023/10/24 02:57:05;;;;;;;6.22;3.28;;;;;;;14.77;59.27;99362.47;7736927;32;39445;-76
2023/10/24 03:01:21;;;;;;;6.40;3.30;;;;;;;14.16;61.03;99348.16;7737908;32;40025;-77
2023/10/24 03:05:37;;;;;;;11.00;3.20;;;;;;;14.69;59.48;99329.47;7724108;32;37910;-77
2023/10/24 03:09:54;;;;;;;6.55;3.40;;;;;;;14.64;59.63;99333.13;7724025;32;37264;-77
2023/10/24 03:14:10;;;;;;;10.90;4.10;;;;;;;14.70;59.51;99320.13;7723355;32;39484;-76
2023/10/24 03:18:26;;;;;;;7.72;3.10;;;;;;;14.70;59.32;99331.09;7737779;32;41016;-76
2023/10/24 03:22:42;;;;;;;5.62;3.15;;;;;;;14.70;59.30;99322.87;7737616;32;37625;-76
2023/10/24 03:26:58;;;;;;;8.88;3.20;;;;;;;14.54;59.82;99327.84;7737364;32;36774;-77
2023/10/24 03:31:15;;;;;;;8.68;3.70;;;;;;;14.63;59.57;99337.81;7737131;32;39450;-76
2023/10/24 03:35:33;;;;;;;8.60;3.33;;;;;;;14.72;59.28;99334.34;7737418;32;39975;-77
2023/10/24 03:39:49;;;;;;;6.78;3.25;;;;;;;14.53;59.74;99329.78;7737266;32;37801;-77
2023/10/24 03:44:06;;;;;;;7.25;3.53;;;;;;;14.59;59.54;99350.53;7737142;32;37100;-76
2023/10/24 03:48:22;;;;;;;8.18;3.40;;;;;;;14.53;59.65;99365.44;7737012;32;40084;-77
2023/10/24 03:52:38;;;;;;;7.72;3.40;;;;;;;14.46;59.84;99343.91;7736659;32;40641;-76
2023/10/24 03:56:54;;;;;;;8.98;2.92;;;;;;;14.36;59.92;99329.63;7736760;32;38462;-76
2023/10/24 04:01:11;;;;;;;8.75;3.17;;;;;;;14.34;59.95;99329.94;7736754;32;37359;-77
2023/10/24 04:05:30;;;;;;;6.28;3.25;;;;;;;14.33;60.04;99322.03;7736797;32;39601;-76
2023/10/24 04:09:47;;;;;;;10.88;3.50;;;;;;;14.42;59.68;99329.22;7739236;32;39945;-76
2023/10/24 04:14:03;;;;;;;8.63;3.50;;;;;;;14.45;59.42;99333.25;7740056;32;38680;-77
2023/10/24 04:18:20;;;;;;;7.35;3.67;;;;;;;14.22;59.91;99332.41;7739701;32;37957;-76
2023/10/24 04:22:36;;;;;;;10.07;3.42;;;;;;;14.30;59.62;99350.03;7740038;32;39837;-76
2023/10/24 04:26:53;;;;;;;8.27;3.95;;;;;;;14.45;59.28;99355.19;7739745;32;39987;-76
2023/10/24 04:31:09;;;;;;;8.30;3.90;;;;;;;14.15;61.25;99342.97;7725710;32;38829;-76
2023/10/24 04:35:25;;;;;;;11.73;3.72;;;;;;;14.09;60.84;99356.00;7739704;32;37039;-76
2023/10/24 04:39:42;;;;;;;11.00;3.67;;;;;;;14.19;60.43;99354.94;7739515;32;39419;-76
2023/10/24 04:43:58;;;;;;;7.53;3.75;;;;;;;14.22;60.23;99344.16;7738877;32;40874;-76
2023/10/24 04:48:14;;;;;;;6.93;3.37;;;;;;;14.28;59.89;99337.47;7739276;32;38107;-76
2023/10/24 04:52:30;;;;;;;9.65;3.95;;;;;;;14.15;60.29;99348.47;7739550;32;36777;-76
2023/10/24 04:56:46;;;;;;;8.70;4.00;;;;;;;14.18;59.94;99342.38;7739462;32;39864;-76
2023/10/24 05:01:03;;;;;;;8.55;3.87;;;;;;;14.04;60.61;99329.47;7739374;32;40007;-76
2023/10/24 05:05:19;;;;;;;8.93;3.90;;;;;;;14.06;60.49;99318.22;7739199;32;37900;-77
2023/10/24 05:09:36;;;;;;;8.32;4.03;;;;;;;14.06;60.59;99324.50;7739194;32;37144;-77
2023/10/24 05:13:52;;;;;;;8.65;3.70;;;;;;;13.90;61.15;99332.25;7739087;32;39376;-76
2023/10/24 05:18:11;;;;;;;7.35;3.72;;;;;;;13.95;60.93;99327.75;7739004;32;39637;-77
2023/10/24 05:22:27;;;;;;;6.70;3.85;;;;;;;13.89;61.08;99327.84;7738724;32;37868;-76
2023/10/24 05:26:44;;;;;;;13.68;4.32;;;;;;;13.87;61.20;99337.50;7738863;32;37411;-76
2023/10/24 05:31:04;;;;;;;9.30;4.47;;;;;;;13.93;61.00;99328.06;7738960;32;40146;-76
2023/10/24 05:35:21;;;;;;;8.32;3.78;;;;;;;14.12;60.68;99327.94;7739357;32;40076;-76
2023/10/24 05:39:38;;;;;;;7.65;3.72;;;;;;;14.20;60.58;99327.22;7738889;32;38635;-76
2023/10/24 05:43:55;;;;;;;6.80;3.95;;;;;;;13.74;62.06;99339.13;7738886;32;35872;-76
2023/10/24 05:48:11;;;;;;;7.82;3.78;;;;;;;13.96;61.68;99351.31;7724970;32;39306;-69
2023/10/24 05:52:27;;;;;;;9.45;4.18;;;;;;;13.67;63.05;99355.16;7734676;32;40838;-76
2023/10/24 05:56:47;;;;;;;12.02;4.30;;;;;;;13.95;62.41;99349.69;7738669;32;38005;-79
2023/10/24 06:01:03;;;;;;;8.77;4.28;;;;;;;14.01;61.67;99340.25;7722822;32;37919;-84
2023/10/24 06:05:19;;;;;;;12.32;4.70;;;;;;;14.10;61.98;99352.09;7737812;32;40067;-83
2023/10/24 06:09:36;;;;;;;9.52;4.57;;;;;;;14.14;61.26;99342.16;7736712;32;40165;-78
2023/10/24 06:13:52;;;;;;;9.65;4.00;;;;;;;14.04;62.81;99317.72;7737740;32;37985;-79
2023/10/24 06:18:08;;;;;;;8.75;4.57;;;;;;;14.20;62.39;99321.75;7736960;32;37635;-80
2023/10/24 06:22:25;;;;;;;11.85;4.72;;;;;;;14.17;61.70;99335.25;7738421;32;37867;-80
2023/10/24 06:26:41;;;;;;;10.00;4.65;;;;;;;14.16;61.99;99345.41;7721186;32;39838;-82
2023/10/24 06:31:01;;;;;;;11.90;5.65;;;;;;;14.32;61.31;99353.31;7734840;32;38149;-81
2023/10/24 06:35:17;;;;;;;8.55;4.82;;;;;;;14.37;61.63;99361.44;7736575;32;37345;-82
2023/10/24 06:39:33;;;;;;;9.85;5.20;;;;;;;14.39;61.45;99356.44;7737507;32;39339;-83
2023/10/24 06:43:50;;;;;;;11.12;4.10;;;;;;;14.64;61.30;99333.13;7738179;32;40902;-83
2023/10/24 06:48:07;;;;;;;10.45;4.57;;;;;;;14.89;60.77;99328.97;7735958;32;38447;-81
2023/10/24 06:52:23;;;;;;;8.45;4.05;;;;;;;14.94;60.81;99323.37;7736714;32;37332;-82
2023/10/24 06:56:39;;;;;;;6.28;3.72;;;;;;;14.88;60.21;99324.59;7735206;32;39346;-82
2023/10/24 07:00:56;;;;;;;11.25;4.37;;;;;;;14.89;60.40;99334.47;7735661;32;39953;-82
2023/10/24 07:05:12;;;;;;;9.60;4.12;;;;;;;14.36;61.52;99322.22;7735852;32;37666;-81
2023/10/24 07:09:28;;;;;;;9.25;4.28;;;;;;;15.15;60.07;99309.13;7737392;32;36756;-80
2023/10/24 07:13:45;;;;;;;15.23;4.50;;;;;;;15.08;60.12;99293.09;7736611;32;38996;-80
2023/10/24 07:18:01;;;;;;;7.78;3.90;;;;;;;15.54;58.28;99289.12;7736177;32;40857;-78
2023/10/24 07:22:17;;;;;;;8.27;4.15;;;;;;;15.70;57.82;99306.00;7736320;32;37899;-80
2023/10/24 07:26:33;;;;;;;9.90;4.50;;;;;;;15.73;57.37;99324.59;7736635;32;37028;-79
2023/10/24 07:30:51;;;;;;;11.50;4.22;;;;;;;15.57;57.75;99305.00;7735751;32;39297;-80
2023/10/24 07:35:08;;;;;;;7.05;4.00;;;;;;;16.07;56.17;99298.38;7736979;32;39927;-82
2023/10/24 07:39:24;;;;;;;8.02;3.87;;;;;;;16.20;55.71;99304.06;7736542;32;38738;-82
2023/10/24 07:43:40;;;;;;;6.47;4.12;;;;;;;15.74;57.02;99293.22;7720526;32;36752;-81
2023/10/24 07:47:57;;;;;;;7.78;4.30;;;;;;;16.08;56.45;99280.75;7735963;32;39442;-80
2023/10/24 07:52:13;;;;;;;10.75;4.50;;;;;;;16.45;55.73;99284.03;7733967;32;40001;-79
2023/10/24 07:56:29;;;;;;;10.52;4.35;;;;;;;16.46;56.44;99285.63;7735227;32;37864;-77
2023/10/24 08:00:47;;;;;;;9.43;4.78;;;;;;;16.87;54.95;99289.06;7736301;32;37214;-79
2023/10/24 08:05:03;;;;;;;8.63;4.18;;;;;;;16.67;54.98;99290.50;7734443;32;39362;-79
2023/10/24 08:09:20;;;;;;;10.07;4.53;;;;;;;16.79;54.76;99284.34;7736574;32;39991;-80
2023/10/24 08:13:36;;;;;;;7.82;4.43;;;;;;;17.29;53.95;99283.78;7733190;32;37935;-76
2023/10/24 08:17:52;;;;;;;10.15;5.18;;;;;;;17.24;53.51;99282.00;7734104;32;36992;-77
2023/10/24 08:22:09;;;;;;;10.90;4.22;;;;;;;16.68;54.84;99281.12;7737831;32;40305;-76
2023/10/24 08:26:25;;;;;;;10.50;4.35;;;;;;;17.38;53.99;99281.78;7735994;32;40226;-77
2023/10/24 08:30:41;;;;;;;11.20;4.65;;;;;;;17.82;52.44;99257.59;7727003;32;38009;-77
2023/10/24 08:34:58;;;;;;;8.68;4.18;;;;;;;17.76;52.48;99253.41;7735958;32;37982;-78
2023/10/24 08:39:15;;;;;;;7.40;4.32;;;;;;;17.89;52.45;99254.34;7736745;32;40168;-78
2023/10/24 08:43:32;;;;;;;8.77;4.20;;;;;;;18.11;52.51;99258.75;7735732;32;40756;-78
2023/10/24 08:47:49;;;;;;;7.12;4.55;;;;;;;18.45;51.14;99269.84;7711294;32;38351;-78
2023/10/24 08:52:06;;;;;;;6.78;3.42;;;;;;;18.39;51.00;99266.50;7707927;32;37758;-77
2023/10/24 08:56:42;;;;;;;8.75;3.85;;;;;;;18.68;50.22;99260.06;7737505;32;39352;-78
2023/10/24 09:00:59;;;;;;;9.85;4.00;;;;;;;18.69;50.20;99256.16;7735863;32;39596;-78
2023/10/24 09:05:17;;;;;;;7.55;3.83;;;;;;;18.48;51.21;99244.34;7724294;32;38112;-79
2023/10/24 09:09:33;;;;;;;10.57;4.18;;;;;;;18.53;50.63;99247.69;7739222;32;37873;-79
2023/10/24 09:13:49;;;;;;;13.82;4.22;;;;;;;18.61;50.88;99243.25;7736593;32;39396;-79
2023/10/24 09:18:06;;;;;;;10.93;4.07;;;;;;;18.61;50.79;99246.03;7735367;32;40105;-80
2023/10/24 09:22:26;;;;;;;8.77;4.60;;;;;;;18.50;51.47;99225.50;7736694;32;37961;-79
2023/10/24 09:26:54;;;;;;;8.48;3.95;;;;;;;18.14;52.34;99229.66;7735120;32;37272;-80
2023/10/24 09:31:10;;;;;;;8.77;3.95;;;;;;;18.51;51.42;99216.87;7737769;32;40219;-79
2023/10/24 09:35:28;;;;;;;9.38;4.20;;;;;;;18.16;52.01;99213.59;7735975;32;39800;-79
2023/10/24 09:39:51;;;;;;;8.30;4.22;;;;;;;18.30;51.81;99216.06;7737089;32;37940;-80
2023/10/24 09:44:08;;;;;;;8.65;4.37;;;;;;;18.03;52.79;99198.94;7735074;32;37354;-79
2023/10/24 09:48:26;;;;;;;12.15;4.12;;;;;;;17.55;54.18;99203.75;7738018;32;39037;-79
2023/10/24 09:52:44;;;;;;;7.18;4.05;;;;;;;18.09;52.96;99205.06;7738769;32;39602;-80
2023/10/24 09:57:00;;;;;;;9.70;4.60;;;;;;;17.86;53.75;99201.78;7737827;32;39082;-79
2023/10/24 10:01:17;;;;;;;10.40;5.10;;;;;;;17.96;53.51;99201.44;7738036;32;36806;-77
2023/10/24 10:05:34;;;;;;;8.32;5.00;;;;;;;18.06;53.04;99202.97;7721535;32;40051;-79
2023/10/24 10:09:54;;;;;;;14.55;4.93;;;;;;;17.93;53.37;99197.38;7738258;32;40783;-80
2023/10/24 10:14:35;;;;;;;8.07;4.50;;;;;;;17.95;54.20;99192.31;7737355;32;38464;-77
2023/10/24 10:19:00;;;;;;;12.18;5.18;;;;;;;18.33;52.96;99199.69;7711579;32;37256;-77
2023/10/24 10:23:47;;;;;;;8.63;4.25;;;;;;;17.97;54.12;99198.34;7736897;32;39840;-78
2023/10/24 10:28:34;;;;;;;6.03;3.55;;;;;;;18.28;53.64;99186.09;7726382;32;40048;-79
2023/10/24 10:33:16;;;;;;;6.90;3.90;;;;;;;18.58;52.94;99166.62;7736311;32;37590;-79
2023/10/24 10:37:36;;;;;;;9.23;3.80;;;;;;;18.61;52.76;99151.34;7735567;32;35657;-80
2023/10/24 10:41:53;;;;;;;10.82;3.60;;;;;;;18.70;52.51;99139.06;7717351;32;39411;-77
2023/10/24 10:46:25;;;;;;;10.60;4.47;;;;;;;18.60;52.69;99113.84;7736294;32;39895;-77
2023/10/24 10:50:42;;;;;;;13.77;4.23;;;;;;;19.08;52.07;99104.03;7736032;32;37976;-76
2023/10/24 10:55:35;;;;;;;10.30;4.07;;;;;;;19.30;51.36;99108.28;7722312;32;37876;-76
2023/10/24 11:00:04;;;;;;;7.87;3.50;;;;;;;19.17;51.16;99106.69;7719562;32;39324;-78
2023/10/24 11:04:20;;;;;;;11.35;4.20;;;;;;;19.36;50.53;99117.94;7709740;32;41170;-77
2023/10/24 11:08:36;;;;;;;11.65;3.92;;;;;;;18.72;52.30;99134.00;7710890;32;38483;-77
2023/10/24 11:12:56;;;;;;;9.90;3.85;;;;;;;18.96;51.71;99132.47;7710957;32;37198;-77
2023/10/24 11:17:12;;;;;;;8.70;3.58;;;;;;;18.94;52.17;99127.28;7709981;32;39864;-77
2023/10/24 11:21:29;;;;;;;7.90;3.25;;;;;;;19.08;51.84;99140.75;7697211;32;40888;-77
2023/10/24 11:25:45;;;;;;;11.52;4.18;;;;;;;19.14;51.92;99144.91;7710887;32;38698;-77
2023/10/24 11:30:01;;;;;;;11.65;3.83;;;;;;;19.29;51.67;99146.16;7710874;32;37059;-77
2023/10/24 11:34:18;;;;;;;7.90;3.47;;;;;;;19.31;51.67;99140.28;7696883;32;40158;-77
2023/10/24 11:38:35;;;;;;;10.35;3.78;;;;;;;19.45;51.34;99142.69;7710537;32;40883;-76
2023/10/24 11:42:51;;;;;;;7.18;3.90;;;;;;;19.57;50.78;99152.94;7710328;32;37875;-77
2023/10/24 11:47:16;;;;;;;12.40;3.80;;;;;;;19.64;51.27;99150.38;7710062;32;37193;-77
2023/10/24 11:51:32;;;;;;;9.93;3.65;;;;;;;19.81;50.82;99141.84;7696361;32;40141;-76
2023/10/24 11:55:49;;;;;;;9.98;3.62;;;;;;;19.82;50.90;99157.31;7710383;32;39927;-76
2023/10/24 12:00:15;;;;;;;6.07;3.17;;;;;;;19.85;50.68;99145.56;7709995;32;38012;-76
2023/10/24 12:04:32;;;;;;;6.43;2.75;;;;;;;19.82;50.95;99140.72;7728823;32;37835;-78
2023/10/24 12:08:49;;;;;;;9.27;3.60;;;;;;;19.87;50.47;99137.69;7736458;32;40492;-76
2023/10/24 12:13:06;;;;;;;10.18;3.80;;;;;;;19.74;50.88;99143.59;7736459;32;40823;-77
2023/10/24 12:17:23;;;;;;;10.95;3.10;;;;;;;19.59;51.90;99148.69;7735929;32;37942;-76
2023/10/24 12:21:39;;;;;;;8.13;2.95;;;;;;;19.66;51.33;99131.50;7735510;32;37947;-76
2023/10/24 12:25:56;;;;;;;7.10;2.95;;;;;;;19.69;50.92;99119.72;7736313;32;39301;-76
2023/10/24 12:30:13;;;;;;;8.30;3.25;;;;;;;19.62;51.01;99123.09;7737330;32;40164;-77
2023/10/24 12:34:29;;;;;;;12.93;3.60;;;;;;;19.70;51.30;99121.34;7736322;32;38337;-77
2023/10/24 12:38:46;;;;;;;11.43;3.75;;;;;;;19.70;51.33;99113.84;7736981;32;37475;-76
2023/10/24 12:43:02;;;;;;;7.22;3.42;;;;;;;19.64;51.51;99106.94;7738417;32;38879;-76
2023/10/24 12:47:20;;;;;;;7.93;3.22;;;;;;;19.68;51.37;99096.03;7739160;32;39564;-76
2023/10/24 12:51:36;;;;;;;10.10;3.40;;;;;;;19.62;51.93;99103.72;7739424;32;37962;-76
2023/10/24 12:55:52;;;;;;;10.35;3.50;;;;;;;19.60;51.63;99106.03;7739564;32;37276;-76
2023/10/24 13:00:09;;;;;;;11.32;2.92;;;;;;;19.56;51.73;99109.84;7725725;32;39077;-77
2023/10/24 13:04:25;;;;;;;7.80;3.05;;;;;;;19.30;52.60;99108.28;7739448;32;39948;-77
2023/10/24 13:08:41;;;;;;;9.70;4.72;;;;;;;19.33;52.52;99108.41;7738637;32;37783;-76
2023/10/24 13:12:58;;;;;;;13.32;4.12;;;;;;;19.04;53.22;99101.16;7739270;32;37802;-76
2023/10/24 13:17:14;;;;;;;11.93;3.33;;;;;;;19.09;54.04;99092.66;7739096;32;39403;-76
2023/10/24 13:21:31;;;;;;;8.38;3.60;;;;;;;18.99;54.70;99106.91;7739155;32;40966;-78
2023/10/24 13:25:48;;;;;;;5.32;3.25;;;;;;;19.03;56.75;99101.50;7739041;32;37940;-79
2023/10/24 13:30:05;;;;;;;11.35;3.95;;;;;;;19.10;56.15;99090.69;7739212;32;37188;-76
2023/10/24 13:34:24;;;;;;;8.32;3.95;;;;;;;18.99;56.68;99071.00;7739056;32;39596;-76
2023/10/24 13:38:43;;;;;;;11.98;4.40;;;;;;;18.77;56.86;99075.78;7739063;32;40276;-77
2023/10/24 13:42:59;;;;;;;12.32;5.07;;;;;;;18.88;57.01;99075.38;7719718;32;38714;-77
2023/10/24 13:47:16;;;;;;;9.45;4.28;;;;;;;18.87;56.93;99071.81;7736386;32;36960;-76
2023/10/24 13:51:32;;;;;;;8.93;3.28;;;;;;;18.93;57.15;99050.28;7737681;32;40557;-77
2023/10/24 13:55:49;;;;;;;9.82;4.35;;;;;;;18.94;57.56;99060.19;7737769;32;40036;-77
2023/10/24 14:00:09;;;;;;;9.55;3.72;;;;;;;18.87;57.79;99048.94;7738029;32;38724;-78
2023/10/24 14:04:27;;;;;;;10.00;3.53;;;;;;;18.85;57.84;99056.72;7737925;32;36984;-77
2023/10/24 14:08:43;;;;;;;9.95;4.07;;;;;;;18.52;58.71;99058.41;7738066;32;40085;-77
2023/10/24 14:13:00;;;;;;;14.63;4.53;;;;;;;18.13;59.92;99057.06;7737894;32;40939;-77
2023/10/24 14:17:17;;;;;;;12.50;4.50;;;;;;;18.25;59.70;99048.81;7736403;32;37733;-76
2023/10/24 14:21:33;;;;;;;10.93;4.10;;;;;;;18.46;59.00;99025.87;7737773;32;37917;-77
2023/10/24 14:25:50;;;;;;;12.65;4.37;;;;;;;18.46;58.95;98992.75;7737650;32;39494;-77
2023/10/24 14:30:08;;;;;;;11.73;4.30;;;;;;;18.38;59.12;98992.50;7737875;32;40244;-77
2023/10/24 14:34:26;;;;;;;11.00;4.10;;;;;;;18.21;59.92;98992.69;7737707;32;37659;-78
2023/10/24 14:38:43;;;;;;;9.45;4.53;;;;;;;18.17;60.19;98962.22;7737844;32;37292;-76
2023/10/24 14:43:00;;;;;;;10.45;4.53;;;;;;;18.08;60.94;98947.75;7737668;32;39311;-76
2023/10/24 14:47:17;;;;;;;9.70;5.20;;;;;;;17.95;61.57;98935.88;7737094;32;40031;-77
2023/10/24 14:51:34;;;;;;;13.20;4.93;;;;;;;17.86;62.02;98893.81;7736066;32;38013;-77
2023/10/24 14:55:50;;;;;;;12.37;5.22;;;;;;;17.68;62.67;98853.78;7737479;32;37261;-77
2023/10/24 15:00:09;;;;;;;16.85;5.62;;;;;;;17.23;63.99;98855.38;7737500;32;40325;-76
2023/10/24 15:04:25;;;;;;;7.85;4.47;;;;;;;17.47;63.37;98846.41;7737387;32;39113;-77
2023/10/24 15:08:42;;;;;;;12.05;4.50;;;;;;;17.36;63.68;98847.97;7737280;32;38678;-76
2023/10/24 15:12:59;;;;;;;11.38;4.70;;;;;;;17.39;63.82;98839.03;7737274;32;36819;-76
2023/10/24 15:17:15;;;;;;;10.50;3.78;;;;;;;17.31;64.11;98834.44;7737077;32;39262;-76
2023/10/24 15:21:34;;;;;;;9.65;4.12;;;;;;;17.41;63.90;98831.25;7737156;32;40076;-76
2023/10/24 15:25:50;;;;;;;8.23;3.78;;;;;;;17.47;63.88;98849.16;7737026;32;37687;-76
2023/10/24 15:30:09;;;;;;;11.07;5.28;;;;;;;17.25;64.55;98869.66;7736674;32;37415;-76
2023/10/24 15:34:28;;;;;;;8.45;4.68;;;;;;;17.17;64.63;98890.59;7736659;32;38405;-78
2023/10/24 15:38:49;;;;;;;;;;;;;;;17.02;65.46;98855.44;7737224;32;40083;-76
2023/10/24 15:43:05;;;;;;;13.20;4.90;;;;;;;17.26;65.03;98838.19;7736930;32;38182;-76
2023/10/24 15:47:22;;;;;;;9.90;4.62;;;;;;;17.09;65.44;98822.63;7736111;32;37286;-76
2023/10/24 15:51:39;;;;;;;7.30;3.92;;;;;;;17.10;65.47;98835.28;7736388;32;39021;-77
2023/10/24 15:55:56;;;;;;;10.07;4.78;;;;;;;17.35;64.75;98830.66;7736193;32;40871;-77
2023/10/24 16:00:16;;;;;;;9.65;4.20;;;;;;;17.15;65.33;98846.09;7736245;32;37589;-77
2023/10/24 16:04:33;;;;;;;9.98;5.00;;;;;;;17.08;65.72;98845.81;7737720;32;37128;-77
2023/10/24 16:08:49;;;;;;;8.15;4.40;;;;;;;17.08;65.81;98868.66;7739632;32;39373;-76
2023/10/24 16:13:06;;;;;;;13.07;5.18;;;;;;;17.19;65.46;98871.78;7739445;32;39902;-78
2023/10/24 16:17:23;;;;;;;10.93;4.68;;;;;;;17.19;65.49;98873.75;7739405;32;38519;-78
2023/10/24 16:21:39;;;;;;;11.73;5.43;;;;;;;17.46;64.72;98869.59;7739030;32;37138;-78
2023/10/24 16:26:03;;;;;;;13.00;5.05;;;;;;;17.46;64.64;98853.06;7739026;32;40128;-76
2023/10/24 16:30:20;;;;;;;12.60;5.12;;;;;;;17.48;64.72;98834.25;7739370;32;40073;-77
2023/10/24 16:34:36;;;;;;;13.68;5.65;;;;;;;17.35;65.25;98832.59;7738841;32;37863;-76
2023/10/24 16:38:53;;;;;;;11.20;5.25;;;;;;;17.22;65.64;98821.53;7739455;32;37159;-77
2023/10/24 16:43:10;;;;;;;11.18;5.30;;;;;;;17.32;65.66;98827.78;7739012;32;39434;-77
2023/10/24 16:47:26;;;;;;;9.63;4.62;;;;;;;17.08;66.59;98821.03;7739088;32;39895;-78
2023/10/24 16:51:43;;;;;;;12.48;5.62;;;;;;;17.04;66.80;98814.59;7738532;32;37596;-77
2023/10/24 16:55:59;;;;;;;12.73;5.95;;;;;;;17.21;66.28;98797.91;7738733;32;37330;-76
2023/10/24 17:00:18;;;;;;;9.75;5.40;;;;;;;17.17;66.47;98794.22;7738888;32;39302;-76
2023/10/24 17:04:35;;;;;;;11.63;5.78;;;;;;;16.97;67.28;98797.81;7738653;32;39146;-76
2023/10/24 17:08:52;;;;;;;13.68;5.60;;;;;;;17.10;66.86;98796.72;7739185;32;37939;-77
2023/10/24 17:13:09;;;;;;;12.63;6.25;;;;;;;16.96;67.51;98804.47;7738291;32;37065;-77
2023/10/24 17:17:25;;;;;;;11.12;5.82;;;;;;;16.95;67.86;98789.09;7737587;32;39353;-76
2023/10/24 17:21:42;;;;;;;11.38;5.65;;;;;;;16.99;67.85;98773.50;7738509;32;40123;-76
2023/10/24 17:25:59;;;;;;;9.75;5.75;;;;;;;17.05;67.79;98770.19;7738276;32;36490;-77
2023/10/24 17:30:16;;;;;;;9.98;5.62;;;;;;;17.02;67.99;98762.62;7738762;32;35625;-77
2023/10/24 17:34:33;;;;;;;11.98;5.97;;;;;;;16.93;68.62;98758.34;7738131;32;39390;-76
2023/10/24 17:38:50;;;;;;;15.15;6.43;;;;;;;17.08;68.00;98749.47;7738723;32;40057;-76
2023/10/24 17:43:06;;;;;;;14.20;6.50;;;;;;;16.96;68.51;98749.44;7738216;32;38223;-76
2023/10/24 17:47:25;;;;;;;14.68;7.45;;;;;;;16.93;68.70;98737.13;7738573;32;36871;-78
2023/10/24 17:51:42;;;;;;;12.32;6.65;;;;;;;16.96;68.71;98733.72;7737742;32;39561;-77
2023/10/24 17:56:02;;;;;;;13.80;7.10;;;;;;;17.06;68.43;98730.53;7738640;32;40481;-77
2023/10/24 18:00:19;;;;;;;12.37;6.37;;;;;;;16.99;68.67;98729.44;7738769;32;37907;-77
2023/10/24 18:04:35;;;;;;;12.70;6.50;;;;;;;16.99;68.53;98712.94;7724690;32;37160;-77
2023/10/24 18:08:53;;;;;;;11.85;6.60;;;;;;;16.98;68.61;98705.84;7737834;32;39418;-76
2023/10/24 18:13:11;;;;;;;11.05;6.62;;;;;;;17.03;68.45;98708.38;7738143;32;40002;-76
2023/10/24 18:17:28;;;;;;;12.02;5.95;;;;;;;17.08;68.35;98710.91;7738331;32;36873;-77
2023/10/24 18:21:45;;;;;;;16.65;6.87;;;;;;;17.00;68.58;98715.34;7737977;32;37387;-75
2023/10/24 18:26:03;;;;;;;13.05;6.10;;;;;;;17.26;67.55;98734.34;7738072;32;39398;-78
2023/10/24 18:30:20;;;;;;;12.37;5.90;;;;;;;17.10;67.85;98716.06;7738009;32;40032;-78
2023/10/24 18:34:36;;;;;;;15.73;5.93;;;;;;;17.13;67.78;98702.44;7724094;32;37804;-77
2023/10/24 18:38:52;;;;;;;11.07;5.47;;;;;;;17.22;67.33;98692.09;7737688;32;37843;-77
2023/10/24 18:43:08;;;;;;;9.90;5.82;;;;;;;17.24;67.55;98676.03;7738218;32;39005;-77
2023/10/24 18:47:25;;;;;;;12.25;6.45;;;;;;;17.13;68.01;98660.31;7738070;32;39974;-77
2023/10/24 18:51:41;;;;;;;11.90;6.00;;;;;;;16.92;68.80;98660.37;7724316;32;37965;-81
2023/10/24 18:55:59;;;;;;;16.58;7.12;;;;;;;17.07;68.09;98657.78;7731987;32;37396;-84
2023/10/24 19:00:16;;;;;;;13.25;6.00;;;;;;;17.00;68.36;98653.97;7737393;32;39390;-82
2023/10/24 19:04:35;;;;;;;13.80;6.00;;;;;;;17.30;67.57;98656.53;7737089;32;40691;-79
2023/10/24 19:08:52;;;;;;;12.55;5.93;;;;;;;17.18;67.66;98643.56;7736353;32;38356;-81
2023/10/24 19:13:08;;;;;;;15.80;6.07;;;;;;;17.08;68.05;98639.31;7737432;32;37319;-81
2023/10/24 19:17:26;;;;;;;13.88;6.22;;;;;;;17.26;67.38;98624.19;7736545;32;39887;-82
2023/10/24 19:21:44;;;;;;;12.10;5.97;;;;;;;16.98;68.33;98631.50;7737024;32;41098;-79
2023/10/24 19:26:03;;;;;;;13.40;6.80;;;;;;;17.18;67.79;98611.31;7735938;32;37984;-80
2023/10/24 19:30:19;;;;;;;13.52;6.28;;;;;;;16.98;68.55;98615.00;7723281;32;37108;-80
2023/10/24 19:34:38;;;;;;;13.15;6.32;;;;;;;17.14;67.92;98604.88;7736371;32;40146;-80
2023/10/24 19:38:55;;;;;;;12.80;6.25;;;;;;;17.11;68.01;98586.31;7734307;32;40032;-79
2023/10/24 19:43:12;;;;;;;18.23;6.72;;;;;;;17.06;68.28;98575.53;7736937;32;37977;-79
2023/10/24 19:47:32;;;;;;;17.00;7.47;;;;;;;17.07;68.10;98596.41;7737045;32;38207;-79
2023/10/24 19:51:50;;;;;;;13.90;6.45;;;;;;;16.96;68.21;98587.81;7737300;32;39888;-79
2023/10/24 19:56:07;;;;;;;14.75;6.70;;;;;;;17.03;68.19;98584.47;7736563;32;40646;-79
2023/10/24 20:00:24;;;;;;;13.45;6.62;;;;;;;16.84;68.91;98580.34;7713517;32;38424;-79
2023/10/24 20:04:46;;;;;;;11.25;6.75;;;;;;;16.97;68.54;98572.06;7735771;32;36828;-77